Lexington, Virginia
Current Conditions -  °F | °C
As of 4:55 PM on Tuesday 25 Nov 2014 (Local Time) from KHSP Reporting Station
Clear Clear  
Wind Chill: 36°   Ceiling: Unl
Heat Index: 42°   Visibility: 10mi
Dew Point: 22°   Wind: 10mph
Humidity: 44%   Direction: 280°W
Pressure: 30"   Gusts: NA
Location:  37.79°N, 79.44°W
Report Text: KHSP 252155Z AUTO 28009KT 10SM CLR 06/M06 A3000 RMK AO2 T00561057
Loading
Personal Weather Stations






























Interactive Weather Map New forecast layout! Learn more

10-Day Weather Forecast

Advertisements
Track Severe Weather on mobile